createdAt,value
2019-03-13T00:00:11.324Z,5.84
2019-03-13T00:01:11.318Z,5.80
2019-03-13T00:02:11.384Z,5.85
2019-03-13T00:03:11.339Z,5.80
2019-03-13T00:04:11.295Z,5.84
2019-03-13T00:05:11.267Z,5.79
2019-03-13T00:06:11.275Z,5.84
2019-03-13T00:07:11.299Z,5.75
2019-03-13T00:08:11.246Z,5.76
2019-03-13T00:09:11.254Z,5.69
2019-03-13T00:10:11.213Z,5.67
2019-03-13T00:11:11.202Z,5.73
2019-03-13T00:12:11.331Z,5.61
2019-03-13T00:13:11.191Z,5.61
2019-03-13T00:14:11.188Z,5.59
2019-03-13T00:15:11.179Z,5.57
2019-03-13T00:16:11.160Z,5.54
2019-03-13T00:17:11.150Z,5.52
2019-03-13T00:18:11.179Z,5.55
2019-03-13T00:19:11.103Z,5.59
2019-03-13T00:20:11.107Z,5.58
2019-03-13T00:21:11.121Z,5.54
2019-03-13T00:22:11.075Z,5.61
2019-03-13T00:23:11.125Z,5.59
2019-03-13T00:24:11.054Z,5.62
2019-03-13T00:25:11.049Z,5.59
2019-03-13T00:26:11.046Z,5.65
2019-03-13T00:27:11.026Z,5.67
2019-03-13T00:28:11.069Z,5.62
2019-03-13T00:29:11.018Z,5.62
2019-03-13T00:30:10.983Z,5.73
2019-03-13T00:31:10.999Z,5.65
2019-03-13T00:32:10.994Z,5.73
2019-03-13T00:33:11.007Z,5.75
2019-03-13T00:34:10.952Z,5.66
2019-03-13T00:35:10.945Z,5.70
2019-03-13T00:36:10.951Z,5.72
2019-03-13T00:37:10.917Z,5.72
2019-03-13T00:38:11.059Z,5.72
2019-03-13T00:39:10.898Z,5.79
2019-03-13T00:40:10.894Z,5.79
2019-03-13T00:41:10.891Z,5.80
2019-03-13T00:42:10.879Z,5.75
2019-03-13T00:43:10.948Z,5.80
2019-03-13T00:44:10.906Z,5.82
2019-03-13T00:45:10.875Z,5.82
2019-03-13T00:46:10.810Z,5.87
2019-03-13T00:47:10.813Z,5.85
2019-03-13T00:48:10.851Z,5.77
2019-03-13T00:49:10.802Z,5.82
2019-03-13T00:50:10.853Z,5.87
2019-03-13T00:51:10.781Z,5.85
2019-03-13T00:52:10.750Z,5.85
2019-03-13T00:53:10.823Z,5.91
2019-03-13T00:54:10.731Z,5.88
2019-03-13T00:55:10.717Z,5.93
2019-03-13T00:56:10.703Z,5.93
2019-03-13T00:57:10.715Z,5.91
2019-03-13T00:58:10.871Z,5.90
2019-03-13T00:59:10.674Z,5.91
2019-03-13T01:00:10.687Z,5.94
2019-03-13T01:01:10.675Z,5.95
2019-03-13T01:02:10.636Z,5.95
2019-03-13T01:03:10.761Z,5.91
2019-03-13T01:04:10.618Z,5.94
2019-03-13T01:05:10.610Z,5.91
2019-03-13T01:06:10.599Z,5.90
2019-03-13T01:07:10.609Z,5.93
2019-03-13T01:08:10.601Z,5.87
2019-03-13T01:09:10.593Z,5.91
2019-03-13T01:10:10.576Z,5.88
2019-03-13T01:11:10.524Z,5.97
2019-03-13T01:12:10.520Z,5.94
2019-03-13T01:13:10.578Z,5.91
2019-03-13T01:14:10.483Z,5.90
2019-03-13T01:15:10.503Z,5.90
2019-03-13T01:16:10.488Z,5.84
2019-03-13T01:17:10.496Z,5.85
2019-03-13T01:18:10.494Z,5.84
2019-03-13T01:19:10.552Z,5.94
2019-03-13T01:20:10.457Z,5.94
2019-03-13T01:21:10.427Z,5.90
2019-03-13T01:22:10.427Z,5.82
2019-03-13T01:23:10.400Z,5.82
2019-03-13T01:24:10.461Z,5.87
2019-03-13T01:25:10.420Z,5.80
2019-03-13T01:26:10.381Z,5.70
2019-03-13T01:27:10.372Z,5.80
2019-03-13T01:28:10.352Z,5.66
2019-03-13T01:29:10.401Z,5.67
2019-03-13T01:30:10.331Z,5.80
2019-03-13T01:31:10.326Z,5.75
2019-03-13T01:32:10.321Z,5.75
2019-03-13T01:33:10.330Z,5.76
2019-03-13T01:34:10.313Z,5.70
2019-03-13T01:35:10.291Z,5.65
2019-03-13T01:36:10.266Z,5.72
2019-03-13T01:37:10.260Z,5.67
2019-03-13T01:38:10.275Z,5.75
2019-03-13T01:39:10.257Z,5.69
2019-03-13T01:40:10.214Z,5.66
2019-03-13T01:41:10.244Z,5.67
2019-03-13T01:42:10.233Z,5.55
2019-03-13T01:43:10.208Z,5.54
2019-03-13T01:44:10.181Z,5.58
2019-03-13T01:45:10.161Z,5.51
2019-03-13T01:46:10.186Z,5.52
2019-03-13T01:47:10.189Z,5.61
2019-03-13T01:48:10.134Z,5.57
2019-03-13T01:49:10.131Z,5.57
2019-03-13T01:50:10.113Z,5.51
2019-03-13T01:51:10.109Z,5.52
2019-03-13T01:52:10.160Z,5.55
2019-03-13T01:53:10.088Z,5.58
2019-03-13T01:54:10.095Z,5.54
2019-03-13T01:55:10.058Z,5.47
2019-03-13T01:56:10.107Z,5.55
2019-03-13T01:57:10.103Z,5.54
2019-03-13T01:58:10.018Z,5.58
2019-03-13T01:59:10.015Z,5.55
2019-03-13T02:00:10.010Z,5.59
2019-03-13T02:01:10.028Z,5.54
2019-03-13T02:02:09.989Z,5.54
2019-03-13T02:03:10.011Z,5.58
2019-03-13T02:04:09.964Z,5.55
2019-03-13T02:05:09.987Z,5.57
2019-03-13T02:06:09.943Z,5.58
2019-03-13T02:07:09.968Z,5.59
2019-03-13T02:08:09.943Z,5.61
2019-03-13T02:09:09.939Z,5.62
2019-03-13T02:10:09.896Z,5.61
2019-03-13T02:11:09.875Z,5.61
2019-03-13T02:12:09.951Z,5.58
2019-03-13T02:13:09.841Z,5.61
2019-03-13T02:14:09.879Z,5.55
2019-03-13T02:15:09.840Z,5.61
2019-03-13T02:16:09.832Z,5.51
2019-03-13T02:17:09.822Z,5.58
2019-03-13T02:18:09.798Z,5.57
2019-03-13T02:19:09.800Z,5.54
2019-03-13T02:20:09.793Z,5.59
2019-03-13T02:21:09.754Z,5.52
2019-03-13T02:22:09.808Z,5.54
2019-03-13T02:23:09.761Z,5.59
2019-03-13T02:24:09.780Z,5.54
2019-03-13T02:25:09.740Z,5.55
2019-03-13T02:26:09.728Z,5.61
2019-03-13T02:27:09.702Z,5.58
2019-03-13T02:28:09.856Z,5.48
2019-03-13T02:29:09.698Z,5.48
2019-03-13T02:30:09.724Z,5.52
2019-03-13T02:31:09.655Z,5.54
2019-03-13T02:32:09.660Z,5.58
2019-03-13T02:33:09.735Z,5.66
2019-03-13T02:34:09.680Z,5.52
2019-03-13T02:35:09.672Z,5.57
2019-03-13T02:36:09.696Z,5.55
2019-03-13T02:37:09.652Z,5.54
2019-03-13T02:38:09.686Z,5.65
2019-03-13T02:39:09.617Z,5.61
2019-03-13T02:40:09.597Z,5.65
2019-03-13T02:41:09.581Z,5.69
2019-03-13T02:42:09.575Z,5.65
2019-03-13T02:43:09.647Z,5.69
2019-03-13T02:44:09.553Z,5.69
2019-03-13T02:45:09.538Z,5.73
2019-03-13T02:46:09.548Z,5.73
2019-03-13T02:47:09.487Z,5.73
2019-03-13T02:48:09.572Z,5.67
2019-03-13T02:49:09.490Z,5.75
2019-03-13T02:50:09.464Z,5.72
2019-03-13T02:51:09.495Z,5.73
2019-03-13T02:52:09.460Z,5.73
2019-03-13T02:53:09.499Z,5.75
2019-03-13T02:54:09.428Z,5.77
2019-03-13T02:55:09.424Z,5.80
2019-03-13T02:56:09.415Z,5.75
2019-03-13T02:57:09.396Z,5.79
2019-03-13T02:58:09.418Z,5.73
2019-03-13T02:59:09.389Z,5.79
2019-03-13T03:01:51.011Z,5.75
2019-03-13T03:02:46.604Z,5.73
2019-03-13T03:03:43.295Z,5.76
2019-03-13T03:04:43.282Z,5.73
2019-03-13T03:05:42.402Z,5.76
2019-03-13T03:06:42.387Z,5.75
2019-03-13T03:07:42.375Z,5.69
2019-03-13T03:08:42.411Z,5.69
2019-03-13T03:09:42.343Z,5.72
2019-03-13T03:10:42.334Z,5.75
2019-03-13T03:11:42.333Z,5.69
2019-03-13T03:12:42.396Z,5.73
2019-03-13T03:13:42.342Z,5.84
2019-03-13T03:14:42.301Z,5.80
2019-03-13T03:15:42.341Z,5.88
2019-03-13T03:16:42.274Z,5.79
2019-03-13T03:17:42.266Z,5.80
2019-03-13T03:18:42.308Z,5.84
2019-03-13T03:19:42.273Z,5.88
2019-03-13T03:20:42.231Z,5.85
2019-03-13T03:21:42.250Z,5.80
2019-03-13T03:22:42.208Z,5.85
2019-03-13T03:23:45.210Z,5.85
2019-03-13T03:24:42.213Z,5.84
2019-03-13T03:25:42.177Z,5.82
2019-03-13T03:26:42.192Z,5.82
2019-03-13T03:27:42.153Z,5.84
2019-03-13T03:28:42.177Z,5.80
2019-03-13T03:29:42.187Z,5.80
2019-03-13T03:30:42.147Z,5.80
2019-03-13T03:31:42.106Z,5.82
2019-03-13T03:32:42.108Z,5.80
2019-03-13T03:33:42.132Z,5.82
2019-03-13T03:34:42.079Z,5.79
2019-03-13T03:35:42.070Z,5.82
2019-03-13T03:36:42.080Z,5.88
2019-03-13T03:37:42.040Z,5.85
2019-03-13T03:38:42.089Z,5.80
2019-03-13T03:39:42.034Z,5.84
2019-03-13T03:40:42.036Z,5.90
2019-03-13T03:41:42.008Z,5.82
2019-03-13T03:42:42.013Z,5.82
2019-03-13T03:43:42.198Z,5.94
2019-03-13T03:44:41.992Z,5.95
2019-03-13T03:45:42.710Z,5.90
2019-03-13T03:46:41.970Z,5.93
2019-03-13T03:47:41.971Z,5.93
2019-03-13T03:48:41.954Z,5.93
2019-03-13T03:49:41.940Z,5.97
2019-03-13T03:50:41.951Z,5.93
2019-03-13T03:51:41.882Z,5.95
2019-03-13T03:52:41.912Z,5.88
2019-03-13T03:53:41.864Z,5.91
2019-03-13T03:54:41.882Z,5.93
2019-03-13T03:55:42.062Z,6.02
2019-03-13T03:56:41.872Z,5.94
2019-03-13T03:57:41.853Z,5.94
2019-03-13T03:58:41.843Z,5.93
2019-03-13T03:59:41.802Z,5.97
2019-03-13T04:00:41.793Z,5.93
2019-03-13T04:01:41.884Z,5.94
2019-03-13T04:02:41.801Z,5.97
2019-03-13T04:03:41.787Z,6.03
2019-03-13T04:04:41.744Z,6.03
2019-03-13T04:05:41.897Z,5.97
2019-03-13T04:06:41.767Z,5.94
2019-03-13T04:07:41.760Z,6.00
2019-03-13T04:08:41.780Z,6.08
2019-03-13T04:09:41.738Z,6.06
2019-03-13T04:10:41.702Z,5.95
2019-03-13T04:11:41.727Z,5.95
2019-03-13T04:12:41.688Z,6.02
2019-03-13T04:13:44.848Z,6.05
2019-03-13T04:14:41.680Z,6.03
2019-03-13T04:15:41.823Z,6.03
2019-03-13T04:16:41.643Z,6.05
2019-03-13T04:17:41.617Z,6.00
2019-03-13T04:18:41.663Z,6.03
2019-03-13T04:19:41.600Z,6.08
2019-03-13T04:20:41.594Z,6.11
2019-03-13T04:21:41.612Z,6.05
2019-03-13T04:22:41.548Z,6.06
2019-03-13T04:23:41.699Z,6.02
2019-03-13T04:24:41.534Z,6.06
2019-03-13T04:25:41.494Z,6.11
2019-03-13T04:26:41.497Z,6.06
2019-03-13T04:27:41.491Z,6.08
2019-03-13T04:28:41.465Z,6.05
2019-03-13T04:29:41.493Z,6.06
2019-03-13T04:30:41.432Z,6.11
2019-03-13T04:31:41.448Z,6.00
2019-03-13T04:32:41.433Z,6.05
2019-03-13T04:33:41.424Z,6.02
2019-03-13T04:34:41.412Z,6.11
2019-03-13T04:35:41.417Z,6.06
2019-03-13T04:36:41.376Z,6.00
2019-03-13T04:37:41.360Z,6.05
2019-03-13T04:38:41.366Z,6.00
2019-03-13T04:39:41.398Z,6.06
2019-03-13T04:40:41.346Z,6.08
2019-03-13T04:41:41.340Z,6.11
2019-03-13T04:42:41.320Z,6.09
2019-03-13T04:43:41.306Z,6.06
2019-03-13T04:44:41.298Z,6.06
2019-03-13T04:45:41.324Z,6.12
2019-03-13T04:46:41.288Z,6.11
2019-03-13T04:47:41.280Z,6.08
2019-03-13T04:48:41.253Z,6.13
2019-03-13T04:49:41.288Z,6.02
2019-03-13T04:50:41.230Z,6.09
2019-03-13T04:51:41.222Z,6.12
2019-03-13T04:52:41.217Z,6.09
2019-03-13T04:53:41.194Z,6.00
2019-03-13T04:54:41.255Z,6.00
2019-03-13T04:55:41.190Z,6.09
2019-03-13T04:56:41.169Z,6.06
2019-03-13T04:57:41.156Z,6.02
2019-03-13T04:58:41.137Z,6.05
2019-03-13T04:59:41.202Z,6.02
2019-03-13T05:00:41.136Z,6.03
2019-03-13T05:01:41.109Z,6.08
2019-03-13T05:02:41.112Z,6.02
2019-03-13T05:03:41.108Z,6.11
2019-03-13T05:04:41.145Z,6.02
2019-03-13T05:05:41.125Z,6.03
2019-03-13T05:06:41.051Z,6.03
2019-03-13T05:07:41.041Z,6.03
2019-03-13T05:08:45.319Z,6.18
2019-03-13T05:09:41.265Z,6.12
2019-03-13T05:10:41.016Z,6.06
2019-03-13T05:11:41.004Z,6.05
2019-03-13T05:12:40.983Z,6.08
2019-03-13T05:13:41.006Z,6.06
2019-03-13T05:14:40.988Z,6.06
2019-03-13T05:15:41.030Z,6.06
2019-03-13T05:16:40.964Z,6.09
2019-03-13T05:17:40.960Z,6.06
2019-03-13T05:18:40.947Z,6.11
2019-03-13T05:19:40.897Z,6.15
2019-03-13T05:20:40.899Z,6.12
2019-03-13T05:21:40.920Z,6.15
2019-03-13T05:22:40.892Z,6.12
2019-03-13T05:23:40.870Z,6.02
2019-03-13T05:24:40.912Z,6.16
2019-03-13T05:25:40.871Z,6.03
2019-03-13T05:26:40.856Z,6.11
2019-03-13T05:27:40.839Z,6.08
2019-03-13T05:28:40.833Z,6.15
2019-03-13T05:29:40.897Z,6.11
2019-03-13T05:30:40.771Z,6.00
2019-03-13T05:31:40.807Z,6.05
2019-03-13T05:32:40.766Z,6.02
2019-03-13T05:33:40.791Z,6.05
2019-03-13T05:34:40.796Z,6.02
2019-03-13T05:35:40.737Z,6.19
2019-03-13T05:36:40.728Z,6.27
2019-03-13T05:37:40.741Z,6.11
2019-03-13T05:38:40.690Z,6.25
2019-03-13T05:39:40.716Z,6.11
2019-03-13T05:40:40.740Z,6.13
2019-03-13T05:41:40.663Z,6.16
2019-03-13T05:42:40.660Z,6.13
2019-03-13T05:43:40.651Z,6.12
2019-03-13T05:44:40.669Z,6.18
2019-03-13T05:45:40.657Z,6.19
2019-03-13T05:46:40.626Z,6.08
2019-03-13T05:47:40.607Z,6.06
2019-03-13T05:48:40.615Z,6.08
2019-03-13T05:49:40.598Z,6.21
2019-03-13T05:50:40.603Z,6.24
2019-03-13T05:51:40.586Z,6.18
2019-03-13T05:52:40.546Z,6.12
2019-03-13T05:53:40.538Z,6.15
2019-03-13T05:54:40.628Z,6.16
2019-03-13T05:55:40.568Z,6.12
2019-03-13T05:56:40.923Z,6.16
2019-03-13T05:57:40.523Z,6.12
2019-03-13T05:58:40.510Z,6.12
2019-03-13T05:59:40.505Z,6.18
2019-03-13T06:00:40.522Z,6.11
2019-03-13T06:01:40.482Z,6.18
2019-03-13T06:02:40.512Z,6.19
2019-03-13T06:03:40.468Z,6.16
2019-03-13T06:04:40.424Z,6.15
2019-03-13T06:05:40.407Z,6.12
2019-03-13T06:06:40.416Z,6.12
2019-03-13T06:07:40.392Z,6.12
2019-03-13T06:08:40.445Z,6.28
2019-03-13T06:09:40.360Z,6.19
2019-03-13T06:10:40.356Z,6.27
2019-03-13T06:11:40.395Z,6.19
2019-03-13T06:12:40.342Z,6.11
2019-03-13T06:13:40.319Z,6.19
2019-03-13T06:14:40.334Z,6.13
2019-03-13T06:15:40.398Z,6.19
2019-03-13T06:16:40.310Z,6.12
2019-03-13T06:17:40.327Z,6.15
2019-03-13T06:18:40.296Z,6.21
2019-03-13T06:19:40.279Z,6.24
2019-03-13T06:20:40.233Z,6.15
2019-03-13T06:21:40.278Z,6.15
2019-03-13T06:22:40.253Z,6.28
2019-03-13T06:23:40.205Z,6.31
2019-03-13T06:24:40.185Z,6.15
2019-03-13T06:25:40.225Z,6.18
2019-03-13T06:26:40.167Z,6.21
2019-03-13T06:27:40.212Z,6.18
2019-03-13T06:28:40.180Z,6.18
2019-03-13T06:29:40.166Z,6.28
2019-03-13T06:30:40.224Z,6.19
2019-03-13T06:31:40.139Z,6.19
2019-03-13T06:32:40.110Z,6.28
2019-03-13T06:33:40.102Z,6.25
2019-03-13T06:34:40.126Z,6.13
2019-03-13T06:35:40.102Z,6.13
2019-03-13T06:36:40.116Z,6.15
2019-03-13T06:37:40.053Z,6.18
2019-03-13T06:38:40.065Z,6.19
2019-03-13T06:39:40.063Z,6.25
2019-03-13T06:40:40.232Z,6.13
2019-03-13T06:41:40.007Z,6.21
2019-03-13T06:42:40.181Z,6.27
2019-03-13T06:43:40.070Z,6.18
2019-03-13T06:44:39.968Z,6.16
2019-03-13T06:45:39.990Z,6.24
2019-03-13T06:46:39.949Z,6.25
2019-03-13T06:47:39.942Z,6.30
2019-03-13T06:48:39.939Z,6.27
2019-03-13T06:49:39.964Z,6.30
2019-03-13T06:50:39.933Z,6.34
2019-03-13T06:51:39.906Z,6.31
2019-03-13T06:52:39.954Z,6.34
2019-03-13T06:53:39.897Z,6.30
2019-03-13T06:54:39.894Z,6.32
2019-03-13T06:55:39.866Z,6.28
2019-03-13T06:56:39.883Z,6.32
2019-03-13T06:57:39.844Z,6.37
2019-03-13T06:58:39.846Z,6.31
2019-03-13T06:59:39.828Z,6.31
2019-03-13T07:00:39.883Z,6.28
2019-03-13T07:01:39.807Z,6.25
2019-03-13T07:02:39.778Z,6.24
2019-03-13T07:03:39.776Z,6.19
2019-03-13T07:04:39.779Z,6.18
2019-03-13T07:05:39.775Z,6.25
2019-03-13T07:06:39.805Z,6.24
2019-03-13T07:07:39.706Z,6.30
2019-03-13T07:08:39.739Z,6.28
2019-03-13T07:09:39.866Z,6.28
2019-03-13T07:10:39.714Z,6.27
2019-03-13T07:11:39.678Z,6.24
2019-03-13T07:12:39.713Z,6.19
2019-03-13T07:13:39.669Z,6.19
2019-03-13T07:14:39.671Z,6.18
2019-03-13T07:15:39.674Z,6.15
2019-03-13T07:16:39.685Z,6.12
2019-03-13T07:17:39.692Z,6.19
2019-03-13T07:18:39.597Z,6.18
2019-03-13T07:19:39.669Z,6.28
2019-03-13T07:20:39.581Z,6.18
2019-03-13T07:21:39.568Z,6.21
2019-03-13T07:22:39.617Z,6.28
2019-03-13T07:23:39.540Z,6.09
2019-03-13T07:24:39.561Z,6.13
2019-03-13T07:25:39.577Z,6.13
2019-03-13T07:26:39.514Z,6.13
2019-03-13T07:27:39.509Z,6.16
2019-03-13T07:28:39.484Z,6.16
2019-03-13T07:29:39.464Z,6.27
2019-03-13T07:30:39.463Z,6.24
2019-03-13T07:31:39.483Z,6.12
2019-03-13T07:32:39.439Z,6.13
2019-03-13T07:33:39.456Z,6.21
2019-03-13T07:34:39.447Z,6.12
2019-03-13T07:35:39.472Z,6.13
2019-03-13T07:36:39.398Z,6.18
2019-03-13T07:37:39.397Z,6.24
2019-03-13T07:38:39.380Z,6.16
2019-03-13T07:39:39.388Z,6.21
2019-03-13T07:40:39.419Z,6.16
2019-03-13T07:41:39.382Z,6.24
2019-03-13T07:42:39.371Z,6.21
2019-03-13T07:43:39.344Z,6.24
2019-03-13T07:44:39.332Z,6.31
2019-03-13T07:45:39.333Z,6.25
2019-03-13T07:46:39.355Z,6.30
2019-03-13T07:47:39.288Z,6.27
2019-03-13T07:48:39.286Z,6.27
2019-03-13T07:49:39.286Z,6.28
2019-03-13T07:50:39.246Z,6.32
2019-03-13T07:51:39.272Z,6.32
2019-03-13T07:52:39.206Z,6.31
2019-03-13T07:53:39.234Z,6.34
2019-03-13T07:54:39.187Z,6.31
2019-03-13T07:55:39.200Z,6.42
2019-03-13T07:56:39.223Z,6.32
2019-03-13T07:57:39.170Z,6.40
2019-03-13T07:58:39.168Z,6.42
2019-03-13T07:59:39.150Z,6.28
2019-03-13T08:00:39.139Z,6.42
2019-03-13T08:01:39.164Z,6.34
2019-03-13T08:02:39.131Z,6.38
2019-03-13T08:03:39.105Z,6.35
2019-03-13T08:04:39.114Z,6.37
2019-03-13T08:05:39.105Z,6.43
2019-03-13T08:06:39.177Z,6.46
2019-03-13T08:07:39.075Z,6.49
2019-03-13T08:08:39.032Z,6.45
2019-03-13T08:09:39.086Z,6.42
2019-03-13T08:10:39.029Z,6.38
2019-03-13T08:11:39.086Z,6.52
2019-03-13T08:12:39.009Z,6.43
2019-03-13T08:13:39.002Z,6.50
2019-03-13T08:14:39.034Z,6.42
2019-03-13T08:15:38.989Z,6.56
2019-03-13T08:16:39.229Z,6.57
2019-03-13T08:17:38.938Z,6.60
2019-03-13T08:18:38.952Z,6.61
2019-03-13T08:19:38.962Z,6.55
2019-03-13T08:20:38.925Z,6.65
2019-03-13T08:21:38.915Z,6.63
2019-03-13T08:22:38.908Z,6.63
2019-03-13T08:23:38.895Z,6.65
2019-03-13T08:24:38.886Z,6.71
2019-03-13T08:25:38.864Z,6.73
2019-03-13T08:26:38.891Z,6.73
2019-03-13T08:27:38.848Z,6.74
2019-03-13T08:28:38.838Z,6.83
2019-03-13T08:29:38.854Z,6.89
2019-03-13T08:30:38.823Z,6.89
2019-03-13T08:31:38.844Z,6.91
2019-03-13T08:32:38.834Z,6.89
2019-03-13T08:33:38.835Z,6.85
2019-03-13T08:34:38.783Z,6.85
2019-03-13T08:35:38.766Z,6.83
2019-03-13T08:36:40.703Z,6.83
2019-03-13T08:37:41.780Z,6.83
2019-03-13T08:38:38.711Z,6.83
2019-03-13T08:39:38.716Z,6.86
2019-03-13T08:40:38.713Z,6.85
2019-03-13T08:41:38.750Z,6.85
2019-03-13T08:42:38.688Z,6.92
2019-03-13T08:43:38.687Z,6.83
2019-03-13T08:44:38.677Z,6.85
2019-03-13T08:45:38.663Z,6.85
2019-03-13T08:46:38.681Z,6.82
2019-03-13T08:47:38.668Z,6.88
2019-03-13T08:48:38.617Z,6.82
2019-03-13T08:49:38.622Z,6.85
2019-03-13T08:50:38.620Z,6.82
2019-03-13T08:51:38.575Z,6.88
2019-03-13T08:52:38.572Z,6.91
2019-03-13T08:53:38.604Z,6.83
2019-03-13T08:54:38.553Z,6.89
2019-03-13T08:55:38.566Z,6.82
2019-03-13T08:56:38.536Z,6.83
2019-03-13T08:57:38.555Z,6.91
2019-03-13T08:58:38.548Z,6.85
2019-03-13T08:59:38.507Z,6.85
2019-03-13T09:00:38.519Z,6.89
2019-03-13T09:01:38.487Z,6.89
2019-03-13T09:02:38.528Z,6.88
2019-03-13T09:03:38.465Z,6.88
2019-03-13T09:04:41.768Z,6.85
2019-03-13T09:05:38.441Z,6.92
2019-03-13T09:06:38.433Z,6.89
2019-03-13T09:07:38.476Z,6.89
2019-03-13T09:08:38.414Z,6.89
2019-03-13T09:09:38.436Z,6.82
2019-03-13T09:10:38.392Z,6.93
2019-03-13T09:11:38.362Z,6.91
2019-03-13T09:12:38.348Z,6.97
2019-03-13T09:13:38.419Z,6.93
2019-03-13T09:14:38.337Z,6.97
2019-03-13T09:15:38.340Z,6.93
2019-03-13T09:16:38.318Z,6.97
2019-03-13T09:17:38.346Z,6.93
2019-03-13T09:18:38.322Z,6.97
2019-03-13T09:19:38.319Z,6.91
2019-03-13T09:20:38.315Z,7.00
2019-03-13T09:21:38.293Z,7.04
2019-03-13T09:22:38.353Z,6.99
2019-03-13T09:23:38.293Z,7.06
2019-03-13T09:24:38.290Z,7.03
2019-03-13T09:25:38.261Z,7.08
2019-03-13T09:26:38.247Z,7.11
2019-03-13T09:27:38.273Z,7.15
2019-03-13T09:28:38.240Z,7.18
2019-03-13T09:29:38.431Z,7.19
2019-03-13T09:30:38.224Z,7.19
2019-03-13T09:31:38.171Z,7.21
2019-03-13T09:32:38.178Z,7.16
2019-03-13T09:33:38.154Z,7.16
2019-03-13T09:34:38.149Z,7.19
2019-03-13T09:35:38.103Z,7.19
2019-03-13T09:36:38.110Z,7.16
2019-03-13T09:37:38.091Z,7.26
2019-03-13T09:38:38.551Z,7.26
2019-03-13T09:39:38.087Z,7.24
2019-03-13T09:40:38.043Z,7.26
2019-03-13T09:41:38.085Z,7.33
2019-03-13T09:42:38.069Z,7.40
2019-03-13T09:43:38.044Z,7.40
2019-03-13T09:44:38.045Z,7.46
2019-03-13T09:45:38.084Z,7.54
2019-03-13T09:46:38.004Z,7.44
2019-03-13T09:47:38.013Z,7.42
2019-03-13T09:48:37.986Z,7.47
2019-03-13T09:49:38.049Z,7.40
2019-03-13T09:50:37.977Z,7.40
2019-03-13T09:51:37.943Z,7.39
2019-03-13T09:52:37.978Z,7.39
2019-03-13T09:53:37.916Z,7.26
2019-03-13T09:54:37.933Z,7.33
2019-03-13T09:55:37.900Z,7.33
2019-03-13T09:56:37.891Z,7.19
2019-03-13T09:57:37.923Z,7.28
2019-03-13T09:58:37.865Z,7.33
2019-03-13T09:59:43.253Z,7.15
2019-03-13T10:00:38.847Z,7.22
2019-03-13T10:01:37.826Z,7.11
2019-03-13T10:02:37.875Z,7.07
2019-03-13T10:03:37.825Z,7.06
2019-03-13T10:04:37.856Z,7.06
2019-03-13T10:05:37.805Z,7.04
2019-03-13T10:06:37.770Z,7.07
2019-03-13T10:07:37.810Z,7.01
2019-03-13T10:08:37.833Z,7.01
2019-03-13T10:09:37.742Z,7.00
2019-03-13T10:10:37.735Z,6.96
2019-03-13T10:11:37.757Z,6.99
2019-03-13T10:12:37.688Z,6.93
2019-03-13T10:13:37.681Z,6.96
2019-03-13T10:14:37.761Z,6.88
2019-03-13T10:15:37.687Z,6.83
2019-03-13T10:16:37.663Z,6.81
2019-03-13T10:17:37.662Z,6.85
2019-03-13T10:18:37.663Z,6.88
2019-03-13T10:19:37.622Z,6.86
2019-03-13T10:20:37.625Z,6.82
2019-03-13T10:21:37.583Z,6.82
2019-03-13T10:22:37.597Z,6.89
2019-03-13T10:23:37.662Z,6.81
2019-03-13T10:24:37.554Z,6.88
2019-03-13T10:25:37.557Z,6.86
2019-03-13T10:26:37.563Z,6.89
2019-03-13T10:27:37.517Z,6.89
2019-03-13T10:28:37.535Z,6.91
2019-03-13T10:29:37.522Z,6.96
2019-03-13T10:30:37.530Z,6.96
2019-03-13T10:31:37.668Z,6.99
2019-03-13T10:32:37.494Z,7.00
2019-03-13T10:33:37.491Z,7.03
2019-03-13T10:34:37.492Z,7.01
2019-03-13T10:35:37.452Z,7.00
2019-03-13T10:36:37.444Z,6.97
2019-03-13T10:37:37.471Z,7.00
2019-03-13T10:38:37.431Z,6.99
2019-03-13T10:39:37.406Z,6.89
2019-03-13T10:40:37.404Z,6.93
2019-03-13T10:41:37.443Z,6.97
2019-03-13T10:42:37.423Z,6.91
2019-03-13T10:43:37.414Z,6.89
2019-03-13T10:44:37.359Z,6.91
2019-03-13T10:45:37.352Z,6.88
2019-03-13T10:46:37.319Z,6.88
2019-03-13T10:47:37.348Z,6.93
2019-03-13T10:48:37.370Z,6.96
2019-03-13T10:49:37.301Z,6.93
2019-03-13T10:50:37.304Z,6.89
2019-03-13T10:51:37.298Z,6.91
2019-03-13T10:52:37.289Z,6.91
2019-03-13T10:53:37.289Z,6.93
2019-03-13T10:54:37.243Z,6.92
2019-03-13T10:55:37.253Z,6.93
2019-03-13T10:56:37.235Z,6.92
2019-03-13T10:57:37.215Z,6.99
2019-03-13T10:58:37.267Z,7.04
2019-03-13T10:59:37.177Z,7.03
2019-03-13T11:00:37.188Z,7.01
2019-03-13T11:01:37.179Z,7.03
2019-03-13T11:02:37.288Z,7.18
2019-03-13T11:03:37.159Z,7.15
2019-03-13T11:04:37.175Z,7.19
2019-03-13T11:05:37.198Z,7.18
2019-03-13T11:06:37.099Z,7.19
2019-03-13T11:07:37.127Z,7.19
2019-03-13T11:08:37.135Z,7.15
2019-03-13T11:09:37.125Z,7.24
2019-03-13T11:10:37.061Z,7.18
2019-03-13T11:11:37.175Z,7.15
2019-03-13T11:12:37.060Z,7.16
2019-03-13T11:13:37.066Z,7.21
2019-03-13T11:14:37.063Z,7.18
2019-03-13T11:15:37.024Z,7.18
2019-03-13T11:16:37.007Z,7.22
2019-03-13T11:17:36.995Z,7.10
2019-03-13T11:18:37.007Z,7.16
2019-03-13T11:19:37.030Z,7.29
2019-03-13T11:20:37.004Z,7.25
2019-03-13T11:21:36.970Z,7.28
2019-03-13T11:22:36.955Z,7.28
2019-03-13T11:23:36.988Z,7.33
2019-03-13T11:24:36.972Z,7.26
2019-03-13T11:25:36.922Z,7.26
2019-03-13T11:26:36.898Z,7.28
2019-03-13T11:27:36.898Z,7.29
2019-03-13T11:28:36.920Z,7.33
2019-03-13T11:29:36.864Z,7.25
2019-03-13T11:30:36.888Z,7.25
2019-03-13T11:31:36.904Z,7.24
2019-03-13T11:32:36.827Z,7.34
2019-03-13T11:33:36.810Z,7.40
2019-03-13T11:34:36.807Z,7.40
2019-03-13T11:35:36.797Z,7.37
2019-03-13T11:36:36.801Z,7.40
2019-03-13T11:37:36.835Z,7.39
2019-03-13T11:38:36.770Z,7.42
2019-03-13T11:39:36.797Z,7.40
2019-03-13T11:40:36.773Z,7.49
2019-03-13T11:41:36.741Z,7.44
2019-03-13T11:42:36.729Z,7.46
2019-03-13T11:43:36.696Z,7.50
2019-03-13T11:44:36.746Z,7.46
2019-03-13T11:45:36.703Z,7.43
2019-03-13T11:46:36.682Z,7.42
2019-03-13T11:47:42.295Z,7.43
2019-03-13T11:48:37.666Z,7.43
2019-03-13T11:49:36.653Z,7.44
2019-03-13T11:50:36.689Z,7.43
2019-03-13T11:51:36.666Z,7.39
2019-03-13T11:52:36.629Z,7.49
2019-03-13T11:53:36.584Z,7.46
2019-03-13T11:54:36.625Z,7.50
2019-03-13T11:55:36.581Z,7.52
2019-03-13T11:56:36.561Z,7.47
2019-03-13T11:57:36.563Z,7.49
2019-03-13T11:58:36.542Z,7.54
2019-03-13T11:59:36.673Z,7.50
2019-03-13T12:00:36.523Z,7.52
2019-03-13T12:01:45.675Z,7.52
2019-03-13T12:02:37.493Z,7.54
2019-03-13T12:03:36.516Z,7.49
2019-03-13T12:04:36.552Z,7.54
2019-03-13T12:05:36.481Z,7.47
2019-03-13T12:06:36.454Z,7.54
2019-03-13T12:07:36.439Z,7.49
2019-03-13T12:08:36.438Z,7.52
2019-03-13T12:09:36.433Z,7.47
2019-03-13T12:10:36.419Z,7.44
2019-03-13T12:11:36.422Z,7.50
2019-03-13T12:12:36.411Z,7.42
2019-03-13T12:13:36.394Z,7.54
2019-03-13T12:14:36.381Z,7.46
2019-03-13T12:15:36.633Z,7.40
2019-03-13T12:16:36.336Z,7.37
2019-03-13T12:17:36.318Z,7.40
2019-03-13T12:18:36.314Z,7.42
2019-03-13T12:19:36.320Z,7.36
2019-03-13T12:20:36.347Z,7.40
2019-03-13T12:21:36.282Z,7.31
2019-03-13T12:22:36.287Z,7.26
2019-03-13T12:23:36.257Z,7.24
2019-03-13T12:24:36.277Z,7.26
2019-03-13T12:25:36.250Z,7.24
2019-03-13T12:26:36.269Z,7.10
2019-03-13T12:27:36.208Z,7.11
2019-03-13T12:28:36.249Z,7.25
2019-03-13T12:29:36.220Z,7.15
2019-03-13T12:30:36.215Z,7.15
2019-03-13T12:31:36.180Z,7.24
2019-03-13T12:32:36.193Z,7.13
2019-03-13T12:33:36.151Z,7.19
2019-03-13T12:34:36.133Z,7.13
2019-03-13T12:35:36.202Z,7.19
2019-03-13T12:36:36.096Z,7.11
2019-03-13T12:37:36.102Z,7.13
2019-03-13T12:38:36.097Z,7.03
2019-03-13T12:39:36.096Z,7.04
2019-03-13T12:40:36.072Z,7.07
2019-03-13T12:41:36.093Z,7.06
2019-03-13T12:42:36.080Z,7.04
2019-03-13T12:43:36.037Z,7.01
2019-03-13T12:44:36.042Z,7.01
2019-03-13T12:45:36.070Z,7.01
2019-03-13T12:46:36.030Z,6.97
2019-03-13T12:47:36.008Z,6.88
2019-03-13T12:48:36.020Z,6.96
2019-03-13T12:49:35.991Z,6.91
2019-03-13T12:50:36.003Z,6.89
2019-03-13T12:51:36.019Z,6.91
2019-03-13T12:52:35.974Z,6.97
2019-03-13T12:53:35.943Z,6.99
2019-03-13T12:54:35.916Z,6.99
2019-03-13T12:55:35.970Z,7.00
2019-03-13T12:56:35.915Z,6.96
2019-03-13T12:57:35.955Z,6.99
2019-03-13T12:58:35.867Z,6.97
2019-03-13T12:59:35.854Z,6.99
2019-03-13T13:00:35.872Z,6.91
2019-03-13T13:01:35.841Z,6.92
2019-03-13T13:02:35.862Z,6.93
2019-03-13T13:03:35.823Z,7.00
2019-03-13T13:04:35.789Z,6.89
2019-03-13T13:05:35.872Z,6.91
2019-03-13T13:06:35.771Z,6.89
2019-03-13T13:07:35.793Z,6.85
2019-03-13T13:08:35.757Z,6.88
2019-03-13T13:09:35.733Z,6.83
2019-03-13T13:10:35.784Z,6.75
2019-03-13T13:11:35.716Z,6.75
2019-03-13T13:12:35.723Z,6.68
2019-03-13T13:13:35.697Z,6.74
2019-03-13T13:14:35.689Z,6.70
2019-03-13T13:15:35.700Z,6.68
2019-03-13T13:16:35.659Z,6.70
2019-03-13T13:17:35.630Z,6.71
2019-03-13T13:18:35.648Z,6.73
2019-03-13T13:19:35.637Z,6.68